createdAt,value
2023-08-31T00:01:02.558Z,98939.31
2023-08-31T00:03:48.715Z,98943.34
2023-08-31T00:06:29.358Z,98949.00
2023-08-31T00:09:17.654Z,98940.28
2023-08-31T00:12:04.410Z,98944.66
2023-08-31T00:15:14.219Z,98948.44
2023-08-31T00:17:56.984Z,98940.66
2023-08-31T00:20:42.854Z,98943.00
2023-08-31T00:23:54.748Z,98951.50
2023-08-31T00:27:04.020Z,98944.66
2023-08-31T00:29:41.073Z,98946.19
2023-08-31T00:32:40.860Z,98949.63
2023-08-31T00:35:32.978Z,98944.31
2023-08-31T00:38:06.281Z,98944.88
2023-08-31T00:41:02.731Z,98951.66
2023-08-31T00:44:21.460Z,98952.09
2023-08-31T00:47:05.583Z,98955.25
2023-08-31T00:50:07.984Z,98955.63
2023-08-31T00:52:59.320Z,98956.44
2023-08-31T00:55:54.579Z,98954.44
2023-08-31T00:58:45.195Z,98950.06
2023-08-31T01:02:02.668Z,98959.75
2023-08-31T01:05:08.645Z,98954.56
2023-08-31T01:08:07.275Z,98956.44
2023-08-31T01:11:21.055Z,98955.75
2023-08-31T01:14:27.245Z,98968.03
2023-08-31T01:17:41.421Z,98969.06
2023-08-31T01:20:23.520Z,98959.63
2023-08-31T01:23:08.033Z,98967.31
2023-08-31T01:25:51.244Z,98967.06
2023-08-31T01:28:59.728Z,98976.75
2023-08-31T01:31:51.221Z,98967.03
2023-08-31T01:35:00.171Z,98976.38
2023-08-31T01:37:56.638Z,98978.88
2023-08-31T01:41:05.491Z,98975.22
2023-08-31T01:43:56.239Z,98975.91
2023-08-31T01:46:46.444Z,98979.94
2023-08-31T01:49:49.633Z,98983.25
2023-08-31T01:52:26.231Z,98985.72
2023-08-31T01:55:17.707Z,98997.63
2023-08-31T01:58:29.830Z,98989.84
2023-08-31T02:01:32.925Z,98986.78
2023-08-31T02:04:33.196Z,98992.09
2023-08-31T02:07:30.829Z,98985.25
2023-08-31T02:10:36.890Z,98981.00
2023-08-31T02:13:22.093Z,98984.19
2023-08-31T02:16:39.384Z,98978.63
2023-08-31T02:19:37.374Z,98992.00
2023-08-31T02:22:38.847Z,98990.94
2023-08-31T02:25:20.323Z,98984.91
2023-08-31T02:28:17.204Z,98991.16
2023-08-31T02:31:07.725Z,98990.56
2023-08-31T02:34:28.822Z,98998.94
2023-08-31T02:37:13.272Z,99000.34
2023-08-31T02:40:43.304Z,99001.75
2023-08-31T02:43:40.059Z,99005.72
2023-08-31T02:46:20.556Z,99006.88
2023-08-31T02:49:12.044Z,99004.63
2023-08-31T02:52:16.673Z,98998.13
2023-08-31T02:54:48.779Z,98998.13
2023-08-31T02:57:47.827Z,98993.19
2023-08-31T03:00:24.433Z,98998.56
2023-08-31T03:03:21.224Z,98991.94
2023-08-31T03:06:11.033Z,98999.16
2023-08-31T03:09:44.903Z,99003.00
2023-08-31T03:12:48.934Z,99002.28
2023-08-31T03:15:33.474Z,99004.16
2023-08-31T03:18:23.788Z,99007.59
2023-08-31T03:21:10.018Z,99006.75
2023-08-31T03:23:48.174Z,99016.31
2023-08-31T03:26:27.035Z,99015.50
2023-08-31T03:28:57.609Z,99018.81
2023-08-31T03:31:43.593Z,99031.88
2023-08-31T03:34:51.396Z,99034.00
2023-08-31T03:37:50.756Z,99030.78
2023-08-31T03:40:56.928Z,99038.78
2023-08-31T03:44:28.937Z,99037.13
2023-08-31T03:47:13.837Z,99040.75
2023-08-31T03:50:20.665Z,99040.50
2023-08-31T03:53:11.304Z,99040.59
2023-08-31T03:55:57.025Z,99045.88
2023-08-31T03:58:29.697Z,99055.53
2023-08-31T04:01:17.918Z,99050.47
2023-08-31T04:03:54.362Z,99054.91
2023-08-31T04:07:09.140Z,99049.81
2023-08-31T04:09:56.512Z,99050.88
2023-08-31T04:12:44.287Z,99055.22
2023-08-31T04:15:36.146Z,99055.31
2023-08-31T04:18:49.294Z,99061.75
2023-08-31T04:22:03.227Z,99068.94
2023-08-31T04:24:59.467Z,99065.63
2023-08-31T04:28:19.714Z,99076.19
2023-08-31T04:31:06.246Z,99073.81
2023-08-31T04:33:57.426Z,99075.81
2023-08-31T04:37:00.315Z,99081.81
2023-08-31T04:39:56.626Z,99081.81
2023-08-31T04:43:14.588Z,99082.88
2023-08-31T04:46:11.723Z,99081.19
2023-08-31T04:48:58.331Z,99091.56
2023-08-31T04:52:18.958Z,99092.59
2023-08-31T04:54:57.516Z,99092.59
2023-08-31T04:58:00.022Z,99083.19
2023-08-31T05:00:46.675Z,99095.28
2023-08-31T05:03:45.165Z,99098.72
2023-08-31T05:06:21.585Z,99103.91
2023-08-31T05:09:44.148Z,99104.00
2023-08-31T05:12:37.521Z,99117.88
2023-08-31T05:15:29.328Z,99114.38
2023-08-31T05:17:59.833Z,99121.22
2023-08-31T05:20:50.675Z,99122.06
2023-08-31T05:23:42.129Z,99121.00
2023-08-31T05:26:30.276Z,99128.56
2023-08-31T05:29:32.121Z,99130.13
2023-08-31T05:32:15.456Z,99142.16
2023-08-31T05:35:05.182Z,99137.06
2023-08-31T05:37:57.556Z,99137.81
2023-08-31T05:41:00.777Z,99139.25
2023-08-31T05:44:17.478Z,99144.13
2023-08-31T05:47:09.095Z,99147.22
2023-08-31T05:49:52.854Z,99154.59
2023-08-31T05:53:06.275Z,99150.84
2023-08-31T05:56:06.421Z,99143.72
2023-08-31T05:58:56.326Z,99145.06
2023-08-31T06:02:28.224Z,99150.66
2023-08-31T06:05:37.089Z,99154.56
2023-08-31T06:08:26.805Z,99149.69
2023-08-31T06:11:16.223Z,99156.09
2023-08-31T06:14:11.351Z,99150.25
2023-08-31T06:16:54.168Z,99154.78
2023-08-31T06:19:39.314Z,99159.34
2023-08-31T06:22:29.245Z,99150.91
2023-08-31T06:25:42.748Z,99157.19
2023-08-31T06:28:17.988Z,99159.13
2023-08-31T06:31:08.214Z,99159.28
2023-08-31T06:34:11.833Z,99166.53
2023-08-31T06:37:08.455Z,99168.59
2023-08-31T06:39:42.403Z,99173.09
2023-08-31T06:42:38.293Z,99188.63
2023-08-31T06:45:49.450Z,99184.06
2023-08-31T06:48:46.243Z,99183.63
2023-08-31T06:51:37.624Z,99184.13
2023-08-31T06:54:33.722Z,99184.50
2023-08-31T06:57:28.302Z,99196.91
2023-08-31T07:00:09.971Z,99196.66
2023-08-31T07:03:08.406Z,99199.78
2023-08-31T07:05:48.230Z,99197.91
2023-08-31T07:08:35.610Z,99198.94
2023-08-31T07:11:45.179Z,99208.50
2023-08-31T07:14:57.231Z,99218.19
2023-08-31T07:17:59.950Z,99214.78
2023-08-31T07:20:48.218Z,99217.88
2023-08-31T07:23:45.169Z,99215.06
2023-08-31T07:26:47.827Z,99217.31
2023-08-31T07:29:55.187Z,99219.19
2023-08-31T07:33:11.022Z,99225.84
2023-08-31T07:36:12.985Z,99229.97
2023-08-31T07:39:05.846Z,99227.00
2023-08-31T07:42:05.297Z,99224.50
2023-08-31T07:44:52.557Z,99227.13
2023-08-31T07:47:51.974Z,99233.75
2023-08-31T07:50:45.169Z,99234.09
2023-08-31T07:53:42.615Z,99227.81
2023-08-31T07:56:22.005Z,99239.78
2023-08-31T07:59:41.891Z,99240.34
2023-08-31T08:02:46.911Z,99244.09
2023-08-31T08:05:58.088Z,99251.25
2023-08-31T08:08:39.349Z,99257.81
2023-08-31T08:11:31.067Z,99252.47
2023-08-31T08:14:13.357Z,99247.91
2023-08-31T08:17:29.574Z,99250.47
2023-08-31T08:20:30.594Z,99256.84
2023-08-31T08:23:27.820Z,99262.66
2023-08-31T08:26:28.323Z,99266.47
2023-08-31T08:29:27.632Z,99274.44
2023-08-31T08:32:15.285Z,99272.75
2023-08-31T08:35:13.768Z,99277.03
2023-08-31T08:38:05.128Z,99273.03
2023-08-31T08:40:57.743Z,99269.72
2023-08-31T08:43:47.803Z,99270.25
2023-08-31T08:46:38.508Z,99273.56
2023-08-31T08:50:00.670Z,99269.44
2023-08-31T08:53:11.792Z,99268.13
2023-08-31T08:56:19.096Z,99280.53
2023-08-31T08:59:03.669Z,99278.63
2023-08-31T09:01:48.917Z,99268.09
2023-08-31T09:04:24.109Z,99275.97
2023-08-31T09:07:19.268Z,99281.41
2023-08-31T09:09:57.024Z,99279.97
2023-08-31T09:12:43.564Z,99288.00
2023-08-31T09:15:28.990Z,99291.34
2023-08-31T09:18:03.538Z,99284.53
2023-08-31T09:21:03.766Z,99284.59
2023-08-31T09:24:00.164Z,99271.13
2023-08-31T09:27:29.389Z,99273.59
2023-08-31T09:30:13.916Z,99278.22
2023-08-31T09:33:00.210Z,99263.56
2023-08-31T09:36:08.034Z,99264.31
2023-08-31T09:39:12.689Z,99264.59
2023-08-31T09:42:07.057Z,99256.91
2023-08-31T09:45:08.197Z,99255.69
2023-08-31T09:47:54.619Z,99263.00
2023-08-31T09:50:36.862Z,99260.50
2023-08-31T09:53:23.573Z,99263.81
2023-08-31T09:56:39.863Z,99265.91
2023-08-31T09:59:38.610Z,99269.06
2023-08-31T10:02:34.727Z,99263.94
2023-08-31T10:05:38.741Z,99269.47
2023-08-31T10:08:37.309Z,99266.81
2023-08-31T10:11:20.966Z,99277.28
2023-08-31T10:13:53.203Z,99279.63
2023-08-31T10:17:15.260Z,99276.44
2023-08-31T10:19:59.152Z,99272.81
2023-08-31T10:22:44.144Z,99272.09
2023-08-31T10:26:07.130Z,99271.66
2023-08-31T10:28:57.488Z,99268.31
2023-08-31T10:32:04.045Z,99276.88
2023-08-31T10:34:42.973Z,99273.00
2023-08-31T10:38:19.077Z,99263.47
2023-08-31T10:41:50.606Z,99264.56
2023-08-31T10:44:43.917Z,99269.59
2023-08-31T10:47:30.896Z,99264.88
2023-08-31T10:50:46.042Z,99254.06
2023-08-31T10:53:28.498Z,99255.53
2023-08-31T10:56:00.452Z,99250.06
2023-08-31T10:58:39.065Z,99263.25
2023-08-31T11:01:15.568Z,99253.06
2023-08-31T11:04:16.155Z,99258.31
2023-08-31T11:07:30.919Z,99260.56
2023-08-31T11:10:19.874Z,99251.69
2023-08-31T11:13:26.514Z,99251.41
2023-08-31T11:16:50.742Z,99251.25
2023-08-31T11:19:36.307Z,99248.09
2023-08-31T11:22:28.824Z,99249.53
2023-08-31T11:25:15.474Z,99249.47
2023-08-31T11:28:12.946Z,99247.78
2023-08-31T11:31:14.313Z,99240.03
2023-08-31T11:34:01.021Z,99241.91
2023-08-31T11:36:49.067Z,99234.75
2023-08-31T11:39:37.073Z,99228.06
2023-08-31T11:42:23.509Z,99224.19
2023-08-31T11:45:30.464Z,99231.94
2023-08-31T11:48:14.100Z,99227.88
2023-08-31T11:51:31.475Z,99220.75
2023-08-31T11:54:20.031Z,99237.59
2023-08-31T11:57:18.376Z,99239.09
2023-08-31T12:00:17.773Z,99245.63
2023-08-31T12:03:10.221Z,99248.41
2023-08-31T12:05:58.245Z,99236.28
2023-08-31T12:09:05.588Z,99242.72
2023-08-31T12:12:02.101Z,99239.56
2023-08-31T12:15:07.801Z,99241.50
2023-08-31T12:17:56.785Z,99251.69
2023-08-31T12:20:47.706Z,99254.19
2023-08-31T12:23:30.551Z,99240.25
2023-08-31T12:26:51.968Z,99244.28
2023-08-31T12:29:31.935Z,99242.88
2023-08-31T12:32:22.984Z,99254.72
2023-08-31T12:35:20.416Z,99245.56
2023-08-31T12:38:15.658Z,99240.47
2023-08-31T12:41:24.641Z,99246.03
2023-08-31T12:44:35.472Z,99253.75
2023-08-31T12:47:32.998Z,99246.19
2023-08-31T12:50:23.980Z,99250.94
2023-08-31T12:53:29.231Z,99249.97
2023-08-31T12:56:08.353Z,99253.56
2023-08-31T12:58:48.484Z,99260.44
2023-08-31T13:01:31.487Z,99254.34
2023-08-31T13:04:10.815Z,99248.91
2023-08-31T13:07:08.126Z,99248.44
2023-08-31T13:10:25.359Z,99251.94
2023-08-31T13:13:35.542Z,99253.06
2023-08-31T13:16:28.402Z,99246.03
2023-08-31T13:19:10.062Z,99237.72
2023-08-31T13:22:14.152Z,99244.19
2023-08-31T13:25:03.878Z,99221.31
2023-08-31T13:27:46.890Z,99223.47
2023-08-31T13:30:51.276Z,99221.78
2023-08-31T13:33:37.017Z,99229.84
2023-08-31T13:36:40.712Z,99227.22
2023-08-31T13:39:19.716Z,99223.75
2023-08-31T13:42:10.446Z,99230.81
2023-08-31T13:45:10.411Z,99229.91
2023-08-31T13:48:24.060Z,99236.13
2023-08-31T13:51:23.933Z,99223.28
2023-08-31T13:54:17.718Z,99222.81
2023-08-31T13:57:24.873Z,99220.53
2023-08-31T14:00:10.210Z,99215.22
2023-08-31T14:02:59.994Z,99211.84
2023-08-31T14:05:52.994Z,99210.78
2023-08-31T14:08:43.909Z,99217.50
2023-08-31T14:11:39.677Z,99211.78
2023-08-31T14:14:33.269Z,99214.50
2023-08-31T14:17:08.153Z,99212.06
2023-08-31T14:20:05.982Z,99215.34
2023-08-31T14:22:44.605Z,99214.97
2023-08-31T14:25:33.560Z,99216.06
2023-08-31T14:29:08.185Z,99196.38
2023-08-31T14:32:13.740Z,99199.00
2023-08-31T14:35:13.105Z,99195.84
2023-08-31T14:38:07.634Z,99201.94
2023-08-31T14:40:54.943Z,99201.53
2023-08-31T14:43:47.000Z,99219.72
2023-08-31T14:46:47.058Z,99218.38
2023-08-31T14:49:25.955Z,99231.31
2023-08-31T14:52:18.392Z,99234.69
2023-08-31T14:55:12.895Z,99235.69
2023-08-31T14:58:03.884Z,99231.88
2023-08-31T15:01:28.064Z,99230.72
2023-08-31T15:04:22.815Z,99233.53
2023-08-31T15:07:08.213Z,99230.13
2023-08-31T15:10:03.539Z,99230.97
2023-08-31T15:13:02.082Z,99229.00
2023-08-31T15:15:55.199Z,99225.75
2023-08-31T15:18:49.724Z,99223.16
2023-08-31T15:22:00.176Z,99218.50
2023-08-31T15:24:50.641Z,99209.94
2023-08-31T15:27:53.288Z,99213.88
2023-08-31T15:30:39.468Z,99220.16
2023-08-31T15:33:36.403Z,99220.81
2023-08-31T15:36:24.087Z,99214.38
2023-08-31T15:39:19.386Z,99215.72
2023-08-31T15:42:04.093Z,99219.84
2023-08-31T15:44:56.505Z,99223.06
2023-08-31T15:47:39.143Z,99220.13
2023-08-31T15:50:37.083Z,99218.38
2023-08-31T15:53:40.497Z,99226.63
2023-08-31T15:56:36.567Z,99234.50
2023-08-31T15:59:33.753Z,99235.81
2023-08-31T16:02:18.806Z,99226.19
2023-08-31T16:04:58.147Z,99219.59
2023-08-31T16:07:53.547Z,99227.16
2023-08-31T16:10:43.199Z,99230.25
2023-08-31T16:13:46.479Z,99236.25
2023-08-31T16:16:36.520Z,99241.44
2023-08-31T16:19:18.293Z,99241.72
2023-08-31T16:22:18.073Z,99238.50
2023-08-31T16:25:20.853Z,99236.97
2023-08-31T16:28:22.547Z,99230.38
2023-08-31T16:31:35.733Z,99233.06
2023-08-31T16:34:24.131Z,99232.88
2023-08-31T16:37:28.884Z,99228.47
2023-08-31T16:40:37.692Z,99235.72
2023-08-31T16:43:25.583Z,99238.81
2023-08-31T16:46:12.214Z,99242.41
2023-08-31T16:49:03.131Z,99239.63
2023-08-31T16:52:24.677Z,99240.75
2023-08-31T16:55:25.206Z,99243.16
2023-08-31T16:58:17.114Z,99243.59
2023-08-31T17:01:19.216Z,99251.09
2023-08-31T17:04:34.866Z,99242.47
2023-08-31T17:07:17.498Z,99256.03
2023-08-31T17:10:03.349Z,99256.47
2023-08-31T17:12:57.142Z,99252.66
2023-08-31T17:15:40.452Z,99248.13
2023-08-31T17:18:31.836Z,99248.72
2023-08-31T17:21:41.736Z,99256.94
2023-08-31T17:24:55.545Z,99258.63
2023-08-31T17:27:58.422Z,99255.63
2023-08-31T17:30:58.115Z,99255.31
2023-08-31T17:33:45.454Z,99255.88
2023-08-31T17:37:10.758Z,99256.22
2023-08-31T17:39:57.706Z,99268.13
2023-08-31T17:42:57.234Z,99271.03
2023-08-31T17:45:46.630Z,99272.16
2023-08-31T17:48:36.820Z,99279.72
2023-08-31T17:51:29.669Z,99283.38
2023-08-31T17:54:35.902Z,99282.94
2023-08-31T17:57:12.052Z,99284.19
2023-08-31T17:59:56.627Z,99284.47
2023-08-31T18:02:55.654Z,99289.84
2023-08-31T18:05:38.602Z,99296.06
2023-08-31T18:08:27.218Z,99304.50
2023-08-31T18:11:27.901Z,99305.88
2023-08-31T18:14:09.052Z,99308.63
2023-08-31T18:16:53.674Z,99318.66
2023-08-31T18:19:36.682Z,99321.38
2023-08-31T18:22:42.074Z,99329.47
2023-08-31T18:25:12.978Z,99327.25
2023-08-31T18:28:56.026Z,99341.72
2023-08-31T18:31:42.545Z,99341.69
2023-08-31T18:34:32.905Z,99343.31
2023-08-31T18:37:30.702Z,99352.03
2023-08-31T18:40:28.645Z,99354.31
2023-08-31T18:43:07.376Z,99360.50
2023-08-31T18:46:02.276Z,99359.78
2023-08-31T18:48:48.876Z,99357.31
2023-08-31T18:51:37.455Z,99360.63
2023-08-31T18:54:29.117Z,99361.47
2023-08-31T18:57:13.795Z,99357.19
2023-08-31T18:59:55.035Z,99364.06
2023-08-31T19:02:46.646Z,99370.50
2023-08-31T19:05:53.008Z,99367.47
2023-08-31T19:08:52.409Z,99366.28
2023-08-31T19:12:13.165Z,99366.81
2023-08-31T19:15:11.925Z,99373.03
2023-08-31T19:17:58.433Z,99379.72
2023-08-31T19:23:43.730Z,99378.44
2023-08-31T19:26:23.539Z,99382.84
2023-08-31T19:29:02.102Z,99382.13
2023-08-31T19:31:55.834Z,99379.78
2023-08-31T19:34:53.487Z,99383.16
2023-08-31T19:37:40.786Z,99390.84
2023-08-31T19:40:37.100Z,99386.69
2023-08-31T19:43:37.682Z,99383.38
2023-08-31T19:46:30.796Z,99387.06
2023-08-31T19:49:28.530Z,99389.81
2023-08-31T19:52:21.365Z,99378.53
2023-08-31T19:55:12.109Z,99380.34
2023-08-31T19:58:07.226Z,99387.72
2023-08-31T20:00:48.074Z,99383.94
2023-08-31T20:03:53.244Z,99388.56
2023-08-31T20:06:54.060Z,99387.97
2023-08-31T20:10:11.556Z,99392.47
2023-08-31T20:13:06.913Z,99390.56
2023-08-31T20:16:08.039Z,99383.47
2023-08-31T20:19:16.185Z,99377.16
2023-08-31T20:22:00.564Z,99372.53
2023-08-31T20:25:22.033Z,99386.78
2023-08-31T20:28:16.136Z,99386.78
2023-08-31T20:31:20.167Z,99393.44
2023-08-31T20:34:02.556Z,99387.75
2023-08-31T20:36:54.006Z,99380.88
2023-08-31T20:39:51.360Z,99382.66
2023-08-31T20:42:31.540Z,99384.44
2023-08-31T20:45:34.444Z,99383.84
2023-08-31T20:48:31.641Z,99383.28
2023-08-31T20:51:08.482Z,99388.50
2023-08-31T20:53:52.341Z,99386.56
2023-08-31T20:56:33.361Z,99386.56
2023-08-31T20:59:53.317Z,99390.41
2023-08-31T21:02:52.392Z,99401.03
2023-08-31T21:05:31.846Z,99403.91
2023-08-31T21:08:21.209Z,99396.91
2023-08-31T21:11:02.630Z,99396.09
2023-08-31T21:14:12.524Z,99397.72
2023-08-31T21:17:08.296Z,99402.72
2023-08-31T21:20:05.971Z,99389.53
2023-08-31T21:23:18.119Z,99389.44
2023-08-31T21:26:02.477Z,99390.41
2023-08-31T21:29:01.741Z,99379.09
2023-08-31T21:31:51.218Z,99393.00
2023-08-31T21:34:45.170Z,99380.78
2023-08-31T21:37:31.619Z,99378.06
2023-08-31T21:40:14.022Z,99393.72
2023-08-31T21:42:55.197Z,99394.75
2023-08-31T21:45:34.806Z,99393.13
2023-08-31T21:48:18.340Z,99389.09
2023-08-31T21:51:20.664Z,99384.34
2023-08-31T21:54:05.817Z,99374.88
2023-08-31T21:57:11.195Z,99388.84
2023-08-31T22:00:12.232Z,99381.38
2023-08-31T22:02:57.656Z,99385.06
2023-08-31T22:06:36.796Z,99384.50
2023-08-31T22:09:27.718Z,99386.84
2023-08-31T22:12:01.726Z,99389.22
2023-08-31T22:14:42.675Z,99380.56
2023-08-31T22:17:34.228Z,99383.06
2023-08-31T22:20:13.478Z,99379.50
2023-08-31T22:23:37.015Z,99374.28
2023-08-31T22:26:11.139Z,99378.66
2023-08-31T22:28:59.867Z,99369.22
2023-08-31T22:31:57.764Z,99374.53
2023-08-31T22:35:05.315Z,99367.53
2023-08-31T22:37:45.964Z,99375.25
2023-08-31T22:40:34.016Z,99379.63
2023-08-31T22:43:16.173Z,99372.63
2023-08-31T22:46:06.045Z,99370.97
2023-08-31T22:49:04.909Z,99372.63
2023-08-31T22:52:17.843Z,99372.84
2023-08-31T22:55:44.481Z,99370.41
2023-08-31T22:58:24.947Z,99367.66
2023-08-31T23:01:10.591Z,99368.59
2023-08-31T23:03:53.499Z,99367.06
2023-08-31T23:06:31.437Z,99370.75
2023-08-31T23:09:28.792Z,99361.50
2023-08-31T23:12:58.914Z,99359.25
2023-08-31T23:15:54.894Z,99348.25
2023-08-31T23:19:00.737Z,99356.19
2023-08-31T23:22:10.899Z,99342.31
2023-08-31T23:25:06.536Z,99343.28
2023-08-31T23:28:22.103Z,99339.94
2023-08-31T23:31:22.218Z,99330.25
2023-08-31T23:34:14.034Z,99330.13
2023-08-31T23:37:17.597Z,99323.25
2023-08-31T23:40:19.556Z,99320.75
2023-08-31T23:43:34.100Z,99315.78
2023-08-31T23:46:24.966Z,99318.63
2023-08-31T23:49:10.189Z,99318.97
2023-08-31T23:51:54.404Z,99316.72
2023-08-31T23:54:35.501Z,99319.44
2023-08-31T23:57:12.237Z,99310.09
2023-08-31T23:59:57.969Z,99314.47
